sensor_id;sensor_type;location;lat;lon;timestamp;temperature;humidity
68051;DHT22;54839;51.364;7.246;2023-02-15T00:00:18;4.60;99.90
68051;DHT22;54839;51.364;7.246;2023-02-15T00:02:43;4.60;99.90
68051;DHT22;54839;51.364;7.246;2023-02-15T00:05:09;4.60;99.90
68051;DHT22;54839;51.364;7.246;2023-02-15T00:07:35;4.60;99.90
68051;DHT22;54839;51.364;7.246;2023-02-15T00:10:00;4.50;99.90
68051;DHT22;54839;51.364;7.246;2023-02-15T00:12:26;4.50;99.90
68051;DHT22;54839;51.364;7.246;2023-02-15T00:14:51;4.50;99.90
68051;DHT22;54839;51.364;7.246;2023-02-15T00:17:17;4.40;99.90
68051;DHT22;54839;51.364;7.246;2023-02-15T00:19:42;4.50;99.90
68051;DHT22;54839;51.364;7.246;2023-02-15T00:22:08;4.30;99.90
68051;DHT22;54839;51.364;7.246;2023-02-15T00:24:33;4.20;99.90
68051;DHT22;54839;51.364;7.246;2023-02-15T00:26:59;4.20;99.90
68051;DHT22;54839;51.364;7.246;2023-02-15T00:29:24;4.20;99.90
68051;DHT22;54839;51.364;7.246;2023-02-15T00:31:50;4.10;99.90
68051;DHT22;54839;51.364;7.246;2023-02-15T00:34:22;4.20;99.90
68051;DHT22;54839;51.364;7.246;2023-02-15T00:36:48;4.10;99.90
68051;DHT22;54839;51.364;7.246;2023-02-15T00:39:15;4.10;99.90
68051;DHT22;54839;51.364;7.246;2023-02-15T00:41:40;4.10;99.90
68051;DHT22;54839;51.364;7.246;2023-02-15T00:44:07;4.10;99.90
68051;DHT22;54839;51.364;7.246;2023-02-15T00:46:33;4.00;99.90
68051;DHT22;54839;51.364;7.246;2023-02-15T00:48:59;4.10;99.90
68051;DHT22;54839;51.364;7.246;2023-02-15T00:51:24;4.00;99.90
68051;DHT22;54839;51.364;7.246;2023-02-15T00:53:50;4.00;99.90
68051;DHT22;54839;51.364;7.246;2023-02-15T00:56:16;3.90;99.90
68051;DHT22;54839;51.364;7.246;2023-02-15T00:58:42;3.90;99.90
68051;DHT22;54839;51.364;7.246;2023-02-15T01:01:14;3.80;99.90
68051;DHT22;54839;51.364;7.246;2023-02-15T01:03:40;3.90;99.90
68051;DHT22;54839;51.364;7.246;2023-02-15T01:06:07;3.70;99.90
68051;DHT22;54839;51.364;7.246;2023-02-15T01:08:33;3.70;99.90
68051;DHT22;54839;51.364;7.246;2023-02-15T01:11:07;3.70;99.90
68051;DHT22;54839;51.364;7.246;2023-02-15T01:13:33;3.60;99.90
68051;DHT22;54839;51.364;7.246;2023-02-15T01:15:59;3.60;99.90
68051;DHT22;54839;51.364;7.246;2023-02-15T01:18:25;3.60;99.90
68051;DHT22;54839;51.364;7.246;2023-02-15T01:20:51;3.60;99.90
68051;DHT22;54839;51.364;7.246;2023-02-15T01:23:17;3.50;99.90
68051;DHT22;54839;51.364;7.246;2023-02-15T01:25:42;3.60;99.90
68051;DHT22;54839;51.364;7.246;2023-02-15T01:28:08;3.50;99.90
68051;DHT22;54839;51.364;7.246;2023-02-15T01:30:33;3.60;99.90
68051;DHT22;54839;51.364;7.246;2023-02-15T01:32:59;3.50;99.90
68051;DHT22;54839;51.364;7.246;2023-02-15T01:35:26;3.50;99.90
68051;DHT22;54839;51.364;7.246;2023-02-15T01:37:52;3.60;99.90
68051;DHT22;54839;51.364;7.246;2023-02-15T01:40:18;3.60;99.90
68051;DHT22;54839;51.364;7.246;2023-02-15T01:42:44;3.70;99.90
68051;DHT22;54839;51.364;7.246;2023-02-15T01:45:26;3.70;99.90
68051;DHT22;54839;51.364;7.246;2023-02-15T01:47:56;3.70;99.90
68051;DHT22;54839;51.364;7.246;2023-02-15T01:50:33;3.70;99.90
68051;DHT22;54839;51.364;7.246;2023-02-15T01:53:16;3.80;99.90
68051;DHT22;54839;51.364;7.246;2023-02-15T01:56:05;3.70;99.90
68051;DHT22;54839;51.364;7.246;2023-02-15T01:58:34;3.60;99.90
68051;DHT22;54839;51.364;7.246;2023-02-15T02:01:01;3.50;99.90
68051;DHT22;54839;51.364;7.246;2023-02-15T02:06:07;3.40;99.90
68051;DHT22;54839;51.364;7.246;2023-02-15T02:08:33;3.40;99.90
68051;DHT22;54839;51.364;7.246;2023-02-15T02:10:58;3.40;99.90
68051;DHT22;54839;51.364;7.246;2023-02-15T02:13:24;3.50;99.90
68051;DHT22;54839;51.364;7.246;2023-02-15T02:16:11;3.50;99.90
68051;DHT22;54839;51.364;7.246;2023-02-15T02:22:07;3.60;99.90
68051;DHT22;54839;51.364;7.246;2023-02-15T02:25:03;3.60;99.90
68051;DHT22;54839;51.364;7.246;2023-02-15T02:27:50;3.40;99.90
68051;DHT22;54839;51.364;7.246;2023-02-15T02:30:40;3.50;99.90
68051;DHT22;54839;51.364;7.246;2023-02-15T02:44:21;3.50;99.90
68051;DHT22;54839;51.364;7.246;2023-02-15T02:47:10;3.50;99.90
68051;DHT22;54839;51.364;7.246;2023-02-15T02:49:42;3.40;99.90
68051;DHT22;54839;51.364;7.246;2023-02-15T02:52:46;3.30;99.90
68051;DHT22;54839;51.364;7.246;2023-02-15T02:58:31;3.30;99.90
68051;DHT22;54839;51.364;7.246;2023-02-15T03:01:06;3.30;99.90
68051;DHT22;54839;51.364;7.246;2023-02-15T03:03:35;3.30;99.90
68051;DHT22;54839;51.364;7.246;2023-02-15T03:06:12;3.20;99.90
68051;DHT22;54839;51.364;7.246;2023-02-15T03:08:50;3.30;99.90
68051;DHT22;54839;51.364;7.246;2023-02-15T03:11:16;3.40;99.90
68051;DHT22;54839;51.364;7.246;2023-02-15T03:13:43;3.40;99.90
68051;DHT22;54839;51.364;7.246;2023-02-15T03:16:10;3.30;99.90
68051;DHT22;54839;51.364;7.246;2023-02-15T03:19:01;3.60;99.90
68051;DHT22;54839;51.364;7.246;2023-02-15T03:21:38;3.40;99.90
68051;DHT22;54839;51.364;7.246;2023-02-15T03:24:16;3.40;99.90
68051;DHT22;54839;51.364;7.246;2023-02-15T03:26:47;3.40;99.90
68051;DHT22;54839;51.364;7.246;2023-02-15T03:29:15;3.30;99.90
68051;DHT22;54839;51.364;7.246;2023-02-15T03:31:43;3.40;99.90
68051;DHT22;54839;51.364;7.246;2023-02-15T03:34:12;3.30;99.90
68051;DHT22;54839;51.364;7.246;2023-02-15T03:39:49;3.20;99.90
68051;DHT22;54839;51.364;7.246;2023-02-15T03:42:22;3.10;99.90
68051;DHT22;54839;51.364;7.246;2023-02-15T03:44:57;3.20;99.90
68051;DHT22;54839;51.364;7.246;2023-02-15T03:47:27;3.10;99.90
68051;DHT22;54839;51.364;7.246;2023-02-15T03:50:05;3.10;99.90
68051;DHT22;54839;51.364;7.246;2023-02-15T03:52:54;3.10;99.90
68051;DHT22;54839;51.364;7.246;2023-02-15T03:55:20;3.00;99.90
68051;DHT22;54839;51.364;7.246;2023-02-15T03:57:46;2.90;99.90
68051;DHT22;54839;51.364;7.246;2023-02-15T04:00:35;2.90;99.90
68051;DHT22;54839;51.364;7.246;2023-02-15T04:03:31;2.90;99.90
68051;DHT22;54839;51.364;7.246;2023-02-15T04:05:59;2.80;99.90
68051;DHT22;54839;51.364;7.246;2023-02-15T04:08:26;2.80;99.90
68051;DHT22;54839;51.364;7.246;2023-02-15T04:11:11;2.70;99.90
68051;DHT22;54839;51.364;7.246;2023-02-15T04:13:37;2.70;99.90
68051;DHT22;54839;51.364;7.246;2023-02-15T04:16:02;2.60;99.90
68051;DHT22;54839;51.364;7.246;2023-02-15T04:18:33;2.70;99.90
68051;DHT22;54839;51.364;7.246;2023-02-15T04:21:19;2.60;99.90
68051;DHT22;54839;51.364;7.246;2023-02-15T04:24:03;2.50;99.90
68051;DHT22;54839;51.364;7.246;2023-02-15T04:26:47;2.40;99.90
68051;DHT22;54839;51.364;7.246;2023-02-15T04:29:14;2.40;99.90
68051;DHT22;54839;51.364;7.246;2023-02-15T04:31:40;2.40;99.90
68051;DHT22;54839;51.364;7.246;2023-02-15T04:34:06;2.40;99.90
68051;DHT22;54839;51.364;7.246;2023-02-15T04:36:31;2.40;99.90
68051;DHT22;54839;51.364;7.246;2023-02-15T04:38:57;2.50;99.90
68051;DHT22;54839;51.364;7.246;2023-02-15T04:41:22;2.50;99.90
68051;DHT22;54839;51.364;7.246;2023-02-15T04:43:48;2.40;99.90
68051;DHT22;54839;51.364;7.246;2023-02-15T04:46:13;2.40;99.90
68051;DHT22;54839;51.364;7.246;2023-02-15T04:48:39;2.40;99.90
68051;DHT22;54839;51.364;7.246;2023-02-15T04:51:07;2.50;99.90
68051;DHT22;54839;51.364;7.246;2023-02-15T04:53:33;2.50;99.90
68051;DHT22;54839;51.364;7.246;2023-02-15T04:55:59;2.50;99.90
68051;DHT22;54839;51.364;7.246;2023-02-15T04:58:24;2.40;99.90
68051;DHT22;54839;51.364;7.246;2023-02-15T05:00:50;2.50;99.90
68051;DHT22;54839;51.364;7.246;2023-02-15T05:03:15;2.40;99.90
68051;DHT22;54839;51.364;7.246;2023-02-15T05:05:41;2.40;99.90
68051;DHT22;54839;51.364;7.246;2023-02-15T05:08:07;2.50;99.90
68051;DHT22;54839;51.364;7.246;2023-02-15T05:10:33;2.50;99.90
68051;DHT22;54839;51.364;7.246;2023-02-15T05:12:58;2.50;99.90
68051;DHT22;54839;51.364;7.246;2023-02-15T05:15:24;2.40;99.90
68051;DHT22;54839;51.364;7.246;2023-02-15T05:17:49;2.40;99.90
68051;DHT22;54839;51.364;7.246;2023-02-15T05:20:15;2.40;99.90
68051;DHT22;54839;51.364;7.246;2023-02-15T05:22:40;2.40;99.90
68051;DHT22;54839;51.364;7.246;2023-02-15T05:25:08;2.40;99.90
68051;DHT22;54839;51.364;7.246;2023-02-15T05:27:52;2.40;99.90
68051;DHT22;54839;51.364;7.246;2023-02-15T05:30:36;2.50;99.90
68051;DHT22;54839;51.364;7.246;2023-02-15T05:33:01;2.50;99.90
68051;DHT22;54839;51.364;7.246;2023-02-15T05:35:27;2.50;99.90
68051;DHT22;54839;51.364;7.246;2023-02-15T05:37:52;2.60;99.90
68051;DHT22;54839;51.364;7.246;2023-02-15T05:40:18;2.80;99.90
68051;DHT22;54839;51.364;7.246;2023-02-15T05:42:44;2.90;99.90
68051;DHT22;54839;51.364;7.246;2023-02-15T05:45:09;2.70;99.90
68051;DHT22;54839;51.364;7.246;2023-02-15T05:47:35;2.70;99.90
68051;DHT22;54839;51.364;7.246;2023-02-15T05:50:00;2.70;99.90
68051;DHT22;54839;51.364;7.246;2023-02-15T05:52:26;2.70;99.90
68051;DHT22;54839;51.364;7.246;2023-02-15T05:54:51;2.70;99.90
68051;DHT22;54839;51.364;7.246;2023-02-15T05:57:17;2.70;99.90
68051;DHT22;54839;51.364;7.246;2023-02-15T05:59:42;2.70;99.90
68051;DHT22;54839;51.364;7.246;2023-02-15T06:02:08;2.70;99.90
68051;DHT22;54839;51.364;7.246;2023-02-15T06:04:33;2.80;99.90
68051;DHT22;54839;51.364;7.246;2023-02-15T06:06:59;2.70;99.90
68051;DHT22;54839;51.364;7.246;2023-02-15T06:09:24;2.90;99.90
68051;DHT22;54839;51.364;7.246;2023-02-15T06:11:50;2.80;99.90
68051;DHT22;54839;51.364;7.246;2023-02-15T06:14:15;2.80;99.90
68051;DHT22;54839;51.364;7.246;2023-02-15T06:16:41;2.90;99.90
68051;DHT22;54839;51.364;7.246;2023-02-15T06:19:06;2.90;99.90
68051;DHT22;54839;51.364;7.246;2023-02-15T06:21:32;3.10;99.90
68051;DHT22;54839;51.364;7.246;2023-02-15T06:23:57;3.00;99.90
68051;DHT22;54839;51.364;7.246;2023-02-15T06:26:23;2.90;99.90
68051;DHT22;54839;51.364;7.246;2023-02-15T06:28:48;2.80;99.90
68051;DHT22;54839;51.364;7.246;2023-02-15T06:31:14;2.80;99.90
68051;DHT22;54839;51.364;7.246;2023-02-15T06:33:40;2.80;99.90
68051;DHT22;54839;51.364;7.246;2023-02-15T06:36:06;2.90;99.90
68051;DHT22;54839;51.364;7.246;2023-02-15T06:38:31;2.90;99.90
68051;DHT22;54839;51.364;7.246;2023-02-15T06:40:57;3.00;99.90
68051;DHT22;54839;51.364;7.246;2023-02-15T06:43:22;2.90;99.90
68051;DHT22;54839;51.364;7.246;2023-02-15T06:45:48;3.00;99.90
68051;DHT22;54839;51.364;7.246;2023-02-15T06:48:13;3.00;99.90
68051;DHT22;54839;51.364;7.246;2023-02-15T06:50:39;3.00;99.90
68051;DHT22;54839;51.364;7.246;2023-02-15T06:53:04;3.00;99.90
68051;DHT22;54839;51.364;7.246;2023-02-15T06:55:30;3.00;99.90
68051;DHT22;54839;51.364;7.246;2023-02-15T06:57:55;3.10;99.90
68051;DHT22;54839;51.364;7.246;2023-02-15T07:00:21;3.00;99.90
68051;DHT22;54839;51.364;7.246;2023-02-15T07:02:53;3.00;99.90
68051;DHT22;54839;51.364;7.246;2023-02-15T07:05:21;3.00;99.90
68051;DHT22;54839;51.364;7.246;2023-02-15T07:07:46;3.00;99.90
68051;DHT22;54839;51.364;7.246;2023-02-15T07:10:12;3.10;99.90
68051;DHT22;54839;51.364;7.246;2023-02-15T07:12:38;3.10;99.90
68051;DHT22;54839;51.364;7.246;2023-02-15T07:15:08;3.10;99.90
68051;DHT22;54839;51.364;7.246;2023-02-15T07:17:35;3.10;99.90
68051;DHT22;54839;51.364;7.246;2023-02-15T07:20:02;3.20;99.90
68051;DHT22;54839;51.364;7.246;2023-02-15T07:22:27;3.30;99.90
68051;DHT22;54839;51.364;7.246;2023-02-15T07:24:53;3.20;99.90
68051;DHT22;54839;51.364;7.246;2023-02-15T07:27:20;3.30;99.90
68051;DHT22;54839;51.364;7.246;2023-02-15T07:29:46;3.30;99.90
68051;DHT22;54839;51.364;7.246;2023-02-15T07:32:12;3.40;99.90
68051;DHT22;54839;51.364;7.246;2023-02-15T07:34:37;3.40;99.90
68051;DHT22;54839;51.364;7.246;2023-02-15T07:37:03;3.50;99.90
68051;DHT22;54839;51.364;7.246;2023-02-15T07:39:29;3.60;99.90
68051;DHT22;54839;51.364;7.246;2023-02-15T07:41:55;3.60;99.90
68051;DHT22;54839;51.364;7.246;2023-02-15T07:44:20;3.70;99.90
68051;DHT22;54839;51.364;7.246;2023-02-15T07:46:46;3.70;99.90
68051;DHT22;54839;51.364;7.246;2023-02-15T07:49:11;3.80;99.90
68051;DHT22;54839;51.364;7.246;2023-02-15T07:51:37;3.80;99.90
68051;DHT22;54839;51.364;7.246;2023-02-15T07:54:03;3.90;99.90
68051;DHT22;54839;51.364;7.246;2023-02-15T07:56:28;4.10;99.90
68051;DHT22;54839;51.364;7.246;2023-02-15T07:58:54;4.10;99.90
68051;DHT22;54839;51.364;7.246;2023-02-15T08:01:36;4.10;99.90
68051;DHT22;54839;51.364;7.246;2023-02-15T08:04:04;4.20;99.90
68051;DHT22;54839;51.364;7.246;2023-02-15T08:06:32;4.20;99.90
68051;DHT22;54839;51.364;7.246;2023-02-15T08:08:59;4.30;99.90
68051;DHT22;54839;51.364;7.246;2023-02-15T08:11:30;4.50;99.90
68051;DHT22;54839;51.364;7.246;2023-02-15T08:16:50;4.50;99.90
68051;DHT22;54839;51.364;7.246;2023-02-15T08:19:31;4.60;99.90
68051;DHT22;54839;51.364;7.246;2023-02-15T08:22:06;4.80;99.90
68051;DHT22;54839;51.364;7.246;2023-02-15T08:24:33;4.90;99.90
68051;DHT22;54839;51.364;7.246;2023-02-15T08:26:59;5.00;99.90
68051;DHT22;54839;51.364;7.246;2023-02-15T08:29:28;5.00;99.90
68051;DHT22;54839;51.364;7.246;2023-02-15T08:31:56;5.00;99.90
68051;DHT22;54839;51.364;7.246;2023-02-15T08:34:24;5.20;99.90
68051;DHT22;54839;51.364;7.246;2023-02-15T08:36:50;5.30;99.90
68051;DHT22;54839;51.364;7.246;2023-02-15T08:39:16;5.30;99.90
68051;DHT22;54839;51.364;7.246;2023-02-15T08:41:44;5.40;99.90
68051;DHT22;54839;51.364;7.246;2023-02-15T08:44:10;5.50;99.90
68051;DHT22;54839;51.364;7.246;2023-02-15T08:46:40;5.50;99.90
68051;DHT22;54839;51.364;7.246;2023-02-15T08:49:07;5.80;99.90
68051;DHT22;54839;51.364;7.246;2023-02-15T08:51:35;5.80;99.90
68051;DHT22;54839;51.364;7.246;2023-02-15T08:54:03;6.00;99.90
68051;DHT22;54839;51.364;7.246;2023-02-15T08:56:35;5.90;99.90
68051;DHT22;54839;51.364;7.246;2023-02-15T08:59:02;6.10;99.90
68051;DHT22;54839;51.364;7.246;2023-02-15T09:01:30;6.10;99.90
68051;DHT22;54839;51.364;7.246;2023-02-15T09:03:58;6.10;99.90
68051;DHT22;54839;51.364;7.246;2023-02-15T09:06:25;6.20;99.90
68051;DHT22;54839;51.364;7.246;2023-02-15T09:08:51;6.30;99.90
68051;DHT22;54839;51.364;7.246;2023-02-15T09:11:28;6.50;99.90
68051;DHT22;54839;51.364;7.246;2023-02-15T09:13:57;6.50;99.90
68051;DHT22;54839;51.364;7.246;2023-02-15T09:16:24;6.70;99.90
68051;DHT22;54839;51.364;7.246;2023-02-15T09:18:51;6.70;99.90
68051;DHT22;54839;51.364;7.246;2023-02-15T09:21:19;6.90;99.90
68051;DHT22;54839;51.364;7.246;2023-02-15T09:23:46;7.00;99.90
68051;DHT22;54839;51.364;7.246;2023-02-15T09:26:14;7.00;99.90
68051;DHT22;54839;51.364;7.246;2023-02-15T09:28:40;7.20;99.90
68051;DHT22;54839;51.364;7.246;2023-02-15T09:31:13;7.30;99.90
68051;DHT22;54839;51.364;7.246;2023-02-15T09:33:40;7.40;99.90
68051;DHT22;54839;51.364;7.246;2023-02-15T09:36:17;7.50;99.90
68051;DHT22;54839;51.364;7.246;2023-02-15T09:38:44;7.60;99.90
68051;DHT22;54839;51.364;7.246;2023-02-15T09:55:23;8.10;99.90
68051;DHT22;54839;51.364;7.246;2023-02-15T10:06:55;8.50;99.90
68051;DHT22;54839;51.364;7.246;2023-02-15T10:12:37;8.80;99.90
68051;DHT22;54839;51.364;7.246;2023-02-15T10:21:25;9.00;99.90
68051;DHT22;54839;51.364;7.246;2023-02-15T10:24:10;9.10;99.90
68051;DHT22;54839;51.364;7.246;2023-02-15T10:26:43;9.20;99.90
68051;DHT22;54839;51.364;7.246;2023-02-15T10:29:21;9.30;99.90
68051;DHT22;54839;51.364;7.246;2023-02-15T10:40:44;9.70;99.90
68051;DHT22;54839;51.364;7.246;2023-02-15T10:43:14;9.90;99.90
68051;DHT22;54839;51.364;7.246;2023-02-15T10:45:57;9.90;99.90
68051;DHT22;54839;51.364;7.246;2023-02-15T10:51:40;10.40;99.90
68051;DHT22;54839;51.364;7.246;2023-02-15T10:56:52;10.50;99.90
68051;DHT22;54839;51.364;7.246;2023-02-15T10:59:38;10.70;99.90
68051;DHT22;54839;51.364;7.246;2023-02-15T11:02:24;10.60;99.90
68051;DHT22;54839;51.364;7.246;2023-02-15T11:05:16;10.80;99.90
68051;DHT22;54839;51.364;7.246;2023-02-15T11:07:47;11.00;99.90
68051;DHT22;54839;51.364;7.246;2023-02-15T11:13:11;11.20;99.90
68051;DHT22;54839;51.364;7.246;2023-02-15T11:15:46;11.20;99.90
68051;DHT22;54839;51.364;7.246;2023-02-15T11:18:26;11.30;99.90
68051;DHT22;54839;51.364;7.246;2023-02-15T11:20:55;11.40;99.90
68051;DHT22;54839;51.364;7.246;2023-02-15T11:23:24;11.40;99.90
68051;DHT22;54839;51.364;7.246;2023-02-15T11:25:59;11.50;99.90
68051;DHT22;54839;51.364;7.246;2023-02-15T11:28:37;11.60;99.90
68051;DHT22;54839;51.364;7.246;2023-02-15T11:31:16;11.60;99.90
68051;DHT22;54839;51.364;7.246;2023-02-15T11:33:46;11.60;99.90
68051;DHT22;54839;51.364;7.246;2023-02-15T11:36:21;11.70;99.90
68051;DHT22;54839;51.364;7.246;2023-02-15T11:38:50;11.70;99.90
68051;DHT22;54839;51.364;7.246;2023-02-15T11:41:21;11.90;99.90
68051;DHT22;54839;51.364;7.246;2023-02-15T11:44:06;11.80;99.90
68051;DHT22;54839;51.364;7.246;2023-02-15T11:46:33;11.80;99.90
68051;DHT22;54839;51.364;7.246;2023-02-15T11:48:58;11.70;99.90
68051;DHT22;54839;51.364;7.246;2023-02-15T11:51:25;11.80;99.90
68051;DHT22;54839;51.364;7.246;2023-02-15T11:53:53;11.80;99.90
68051;DHT22;54839;51.364;7.246;2023-02-15T11:56:24;12.00;99.90
68051;DHT22;54839;51.364;7.246;2023-02-15T11:58:59;12.10;99.90
68051;DHT22;54839;51.364;7.246;2023-02-15T12:01:34;12.20;99.90
68051;DHT22;54839;51.364;7.246;2023-02-15T12:06:57;12.30;99.90
68051;DHT22;54839;51.364;7.246;2023-02-15T12:09:49;12.40;99.90
68051;DHT22;54839;51.364;7.246;2023-02-15T12:12:27;12.50;99.90
68051;DHT22;54839;51.364;7.246;2023-02-15T12:14:58;12.50;99.90
68051;DHT22;54839;51.364;7.246;2023-02-15T12:17:26;12.60;99.90
68051;DHT22;54839;51.364;7.246;2023-02-15T12:19:56;12.70;99.90
68051;DHT22;54839;51.364;7.246;2023-02-15T12:22:29;12.70;99.90
68051;DHT22;54839;51.364;7.246;2023-02-15T12:25:01;12.90;99.90
68051;DHT22;54839;51.364;7.246;2023-02-15T12:27:34;12.90;99.90
68051;DHT22;54839;51.364;7.246;2023-02-15T12:30:01;13.00;99.90
68051;DHT22;54839;51.364;7.246;2023-02-15T12:32:33;13.10;99.90
68051;DHT22;54839;51.364;7.246;2023-02-15T12:35:02;13.30;99.90
68051;DHT22;54839;51.364;7.246;2023-02-15T12:37:33;13.30;99.90
68051;DHT22;54839;51.364;7.246;2023-02-15T12:40:02;13.30;99.90
68051;DHT22;54839;51.364;7.246;2023-02-15T12:42:41;13.40;99.90
68051;DHT22;54839;51.364;7.246;2023-02-15T12:45:36;13.60;99.90
68051;DHT22;54839;51.364;7.246;2023-02-15T12:50:34;13.80;99.90
68051;DHT22;54839;51.364;7.246;2023-02-15T12:53:20;13.80;99.90
68051;DHT22;54839;51.364;7.246;2023-02-15T12:56:06;13.80;99.90
68051;DHT22;54839;51.364;7.246;2023-02-15T12:58:36;13.70;99.90
68051;DHT22;54839;51.364;7.246;2023-02-15T13:03:36;13.90;99.90
68051;DHT22;54839;51.364;7.246;2023-02-15T13:06:04;13.70;99.90
68051;DHT22;54839;51.364;7.246;2023-02-15T13:08:39;13.90;99.90
68051;DHT22;54839;51.364;7.246;2023-02-15T13:11:11;13.80;99.90
68051;DHT22;54839;51.364;7.246;2023-02-15T13:13:57;14.00;99.90
68051;DHT22;54839;51.364;7.246;2023-02-15T13:16:36;13.90;99.90
68051;DHT22;54839;51.364;7.246;2023-02-15T13:19:09;14.10;99.90
68051;DHT22;54839;51.364;7.246;2023-02-15T13:21:40;14.50;99.90
68051;DHT22;54839;51.364;7.246;2023-02-15T13:24:15;16.20;99.90
68051;DHT22;54839;51.364;7.246;2023-02-15T13:26:43;17.40;95.40
68051;DHT22;54839;51.364;7.246;2023-02-15T13:29:31;18.00;92.10
68051;DHT22;54839;51.364;7.246;2023-02-15T13:32:07;18.20;88.20
68051;DHT22;54839;51.364;7.246;2023-02-15T13:34:38;17.90;82.70
68051;DHT22;54839;51.364;7.246;2023-02-15T13:37:15;18.80;86.90
68051;DHT22;54839;51.364;7.246;2023-02-15T13:39:54;19.10;78.00
68051;DHT22;54839;51.364;7.246;2023-02-15T13:42:41;20.00;79.60
68051;DHT22;54839;51.364;7.246;2023-02-15T13:48:22;21.70;71.70
68051;DHT22;54839;51.364;7.246;2023-02-15T13:51:22;21.90;62.90
68051;DHT22;54839;51.364;7.246;2023-02-15T13:53:58;23.20;66.40
68051;DHT22;54839;51.364;7.246;2023-02-15T13:59:33;23.30;58.10
68051;DHT22;54839;51.364;7.246;2023-02-15T14:02:20;23.70;57.90
68051;DHT22;54839;51.364;7.246;2023-02-15T14:15:32;24.80;55.40
68051;DHT22;54839;51.364;7.246;2023-02-15T14:18:25;25.20;56.00
68051;DHT22;54839;51.364;7.246;2023-02-15T14:23:52;25.80;54.30
68051;DHT22;54839;51.364;7.246;2023-02-15T14:26:30;26.00;51.00
68051;DHT22;54839;51.364;7.246;2023-02-15T14:31:50;26.30;54.90
68051;DHT22;54839;51.364;7.246;2023-02-15T14:34:24;26.10;48.60
68051;DHT22;54839;51.364;7.246;2023-02-15T14:36:52;26.60;47.80
68051;DHT22;54839;51.364;7.246;2023-02-15T14:39:36;26.40;45.70
68051;DHT22;54839;51.364;7.246;2023-02-15T14:42:43;27.20;49.10
68051;DHT22;54839;51.364;7.246;2023-02-15T14:45:29;26.50;47.50
68051;DHT22;54839;51.364;7.246;2023-02-15T14:48:24;26.00;47.90
68051;DHT22;54839;51.364;7.246;2023-02-15T14:50:50;23.70;46.70
68051;DHT22;54839;51.364;7.246;2023-02-15T14:53:24;22.90;49.80
68051;DHT22;54839;51.364;7.246;2023-02-15T14:56:17;22.60;50.30
68051;DHT22;54839;51.364;7.246;2023-02-15T15:01:29;21.40;50.40
68051;DHT22;54839;51.364;7.246;2023-02-15T15:03:59;21.00;51.20
68051;DHT22;54839;51.364;7.246;2023-02-15T15:06:32;20.80;50.90
68051;DHT22;54839;51.364;7.246;2023-02-15T15:09:10;20.30;52.30
68051;DHT22;54839;51.364;7.246;2023-02-15T15:11:43;19.90;52.90
68051;DHT22;54839;51.364;7.246;2023-02-15T15:14:09;19.70;53.20
68051;DHT22;54839;51.364;7.246;2023-02-15T15:19:02;19.70;54.30
68051;DHT22;54839;51.364;7.246;2023-02-15T15:36:21;17.30;58.40
68051;DHT22;54839;51.364;7.246;2023-02-15T15:48:08;15.90;64.40
68051;DHT22;54839;51.364;7.246;2023-02-15T15:50:39;15.60;66.50
68051;DHT22;54839;51.364;7.246;2023-02-15T15:53:06;15.30;67.90
68051;DHT22;54839;51.364;7.246;2023-02-15T15:55:43;15.10;69.20
68051;DHT22;54839;51.364;7.246;2023-02-15T15:58:14;14.90;71.20
68051;DHT22;54839;51.364;7.246;2023-02-15T16:00:47;14.50;73.50
68051;DHT22;54839;51.364;7.246;2023-02-15T16:03:20;14.40;75.40
68051;DHT22;54839;51.364;7.246;2023-02-15T16:05:46;14.30;77.90
68051;DHT22;54839;51.364;7.246;2023-02-15T16:08:11;14.10;80.00
68051;DHT22;54839;51.364;7.246;2023-02-15T16:10:37;14.00;82.40
68051;DHT22;54839;51.364;7.246;2023-02-15T16:13:05;13.90;84.20
68051;DHT22;54839;51.364;7.246;2023-02-15T16:15:43;13.70;86.70
68051;DHT22;54839;51.364;7.246;2023-02-15T16:18:14;13.60;89.40
68051;DHT22;54839;51.364;7.246;2023-02-15T16:20:40;13.30;91.60
68051;DHT22;54839;51.364;7.246;2023-02-15T16:26:04;12.90;95.70
68051;DHT22;54839;51.364;7.246;2023-02-15T16:28:32;12.80;97.30
68051;DHT22;54839;51.364;7.246;2023-02-15T16:31:13;12.70;98.30
68051;DHT22;54839;51.364;7.246;2023-02-15T16:33:41;12.40;99.50
68051;DHT22;54839;51.364;7.246;2023-02-15T16:36:20;12.30;99.90
68051;DHT22;54839;51.364;7.246;2023-02-15T16:41:23;12.10;99.90
68051;DHT22;54839;51.364;7.246;2023-02-15T16:43:50;11.90;99.90
68051;DHT22;54839;51.364;7.246;2023-02-15T16:46:26;11.90;99.90
68051;DHT22;54839;51.364;7.246;2023-02-15T16:48:55;11.80;99.90
68051;DHT22;54839;51.364;7.246;2023-02-15T16:51:24;11.70;99.90
68051;DHT22;54839;51.364;7.246;2023-02-15T16:53:51;11.60;99.90
68051;DHT22;54839;51.364;7.246;2023-02-15T16:56:26;11.50;99.90
68051;DHT22;54839;51.364;7.246;2023-02-15T16:58:54;11.50;99.90
68051;DHT22;54839;51.364;7.246;2023-02-15T17:01:21;11.40;99.90
68051;DHT22;54839;51.364;7.246;2023-02-15T17:03:50;11.20;99.90
68051;DHT22;54839;51.364;7.246;2023-02-15T17:06:25;11.10;99.90
68051;DHT22;54839;51.364;7.246;2023-02-15T17:08:52;11.00;99.90
68051;DHT22;54839;51.364;7.246;2023-02-15T17:11:20;11.00;99.90
68051;DHT22;54839;51.364;7.246;2023-02-15T17:19:26;10.60;99.90
68051;DHT22;54839;51.364;7.246;2023-02-15T17:22:04;10.50;99.90
68051;DHT22;54839;51.364;7.246;2023-02-15T17:24:42;10.40;99.90
68051;DHT22;54839;51.364;7.246;2023-02-15T17:27:26;10.30;99.90
68051;DHT22;54839;51.364;7.246;2023-02-15T17:30:00;10.20;99.90
68051;DHT22;54839;51.364;7.246;2023-02-15T17:32:31;10.20;99.90
68051;DHT22;54839;51.364;7.246;2023-02-15T17:35:07;10.20;99.90
68051;DHT22;54839;51.364;7.246;2023-02-15T17:42:46;10.00;99.90
68051;DHT22;54839;51.364;7.246;2023-02-15T17:45:12;10.00;99.90
68051;DHT22;54839;51.364;7.246;2023-02-15T17:47:38;10.00;99.90
68051;DHT22;54839;51.364;7.246;2023-02-15T17:50:05;9.80;99.90
68051;DHT22;54839;51.364;7.246;2023-02-15T17:52:31;9.80;99.90
68051;DHT22;54839;51.364;7.246;2023-02-15T17:54:57;9.80;99.90
68051;DHT22;54839;51.364;7.246;2023-02-15T17:57:41;9.60;99.90
68051;DHT22;54839;51.364;7.246;2023-02-15T18:00:07;9.50;99.90
68051;DHT22;54839;51.364;7.246;2023-02-15T18:02:52;9.60;99.90
68051;DHT22;54839;51.364;7.246;2023-02-15T18:05:36;9.60;99.90
68051;DHT22;54839;51.364;7.246;2023-02-15T18:08:26;9.60;99.90
68051;DHT22;54839;51.364;7.246;2023-02-15T18:11:11;9.50;99.90
68051;DHT22;54839;51.364;7.246;2023-02-15T18:13:55;9.40;99.90
68051;DHT22;54839;51.364;7.246;2023-02-15T18:16:28;9.30;99.90
68051;DHT22;54839;51.364;7.246;2023-02-15T18:18:55;9.20;99.90
68051;DHT22;54839;51.364;7.246;2023-02-15T18:21:21;9.30;99.90
68051;DHT22;54839;51.364;7.246;2023-02-15T18:23:47;9.20;99.90
68051;DHT22;54839;51.364;7.246;2023-02-15T18:26:19;9.10;99.90
68051;DHT22;54839;51.364;7.246;2023-02-15T18:28:45;9.00;99.90
68051;DHT22;54839;51.364;7.246;2023-02-15T18:31:11;9.00;99.90
68051;DHT22;54839;51.364;7.246;2023-02-15T18:34:00;9.00;99.90
68051;DHT22;54839;51.364;7.246;2023-02-15T18:36:31;8.90;99.90